createdAt,value
2019-02-27T00:00:44.048Z,100922.72
2019-02-27T00:03:14.719Z,100917.52
2019-02-27T00:05:43.688Z,100913.97
2019-02-27T00:08:12.593Z,100912.70
2019-02-27T00:10:41.708Z,100915.75
2019-02-27T00:13:10.655Z,100915.23
2019-02-27T00:15:39.769Z,100923.11
2019-02-27T00:18:08.808Z,100916.07
2019-02-27T00:20:37.782Z,100909.06
2019-02-27T00:23:06.916Z,100921.69
2019-02-27T00:25:36.684Z,100919.04
2019-02-27T00:28:05.988Z,100922.53
2019-02-27T00:30:37.955Z,100919.91
2019-02-27T00:33:05.850Z,100919.88
2019-02-27T00:35:38.669Z,100922.48
2019-02-27T00:38:05.430Z,100921.56
2019-02-27T00:40:38.594Z,100923.31
2019-02-27T00:43:05.356Z,100922.41
2019-02-27T00:45:34.407Z,100920.66
2019-02-27T00:48:03.347Z,100916.73
2019-02-27T00:50:32.371Z,100919.75
2019-02-27T00:53:01.337Z,100912.73
2019-02-27T00:55:30.329Z,100911.91
2019-02-27T00:57:59.352Z,100909.60
2019-02-27T01:00:28.554Z,100898.63
2019-02-27T01:02:57.628Z,100900.50
2019-02-27T01:05:26.574Z,100897.77
2019-02-27T01:07:55.481Z,100902.11
2019-02-27T01:10:24.403Z,100902.94
2019-02-27T01:12:57.959Z,100907.47
2019-02-27T01:15:24.083Z,100915.22
2019-02-27T01:17:55.016Z,100914.83
2019-02-27T01:20:23.622Z,100920.88
2019-02-27T01:22:52.488Z,100921.22
2019-02-27T01:25:23.051Z,100915.08
2019-02-27T01:27:52.057Z,100919.33
2019-02-27T01:30:24.007Z,100911.89
2019-02-27T01:32:51.663Z,100907.88
2019-02-27T01:35:20.531Z,100902.70
2019-02-27T01:37:49.420Z,100892.70
2019-02-27T01:40:18.695Z,100884.86
2019-02-27T01:42:47.818Z,100880.03
2019-02-27T01:45:20.642Z,100877.47
2019-02-27T01:47:47.833Z,100875.73
2019-02-27T01:50:30.984Z,100874.37
2019-02-27T01:52:59.948Z,100872.02
2019-02-27T01:55:28.803Z,100889.34
2019-02-27T01:57:57.684Z,100879.79
2019-02-27T02:00:26.700Z,100878.44
2019-02-27T02:02:55.670Z,100879.36
2019-02-27T02:05:27.111Z,100872.73
2019-02-27T02:07:56.347Z,100863.17
2019-02-27T02:10:28.098Z,100868.66
2019-02-27T02:13:02.118Z,100866.53
2019-02-27T02:15:33.897Z,100864.03
2019-02-27T02:18:08.696Z,100866.15
2019-02-27T02:20:49.698Z,100862.09
2019-02-27T02:23:27.316Z,100864.91
2019-02-27T02:26:04.943Z,100856.77
2019-02-27T02:28:48.054Z,100855.72
2019-02-27T02:31:31.683Z,100849.96
2019-02-27T02:34:15.564Z,100855.72
2019-02-27T02:37:04.179Z,100860.67
2019-02-27T02:39:54.652Z,100854.87
2019-02-27T02:42:33.363Z,100849.79
2019-02-27T02:45:10.955Z,100853.70
2019-02-27T02:47:45.272Z,100849.52
2019-02-27T02:50:42.835Z,100856.54
2019-02-27T02:53:29.518Z,100860.94
2019-02-27T02:56:01.363Z,100864.24
2019-02-27T02:58:33.233Z,100861.64
2019-02-27T03:01:05.101Z,100857.91
2019-02-27T03:03:39.794Z,100866.64
2019-02-27T03:06:38.722Z,100866.64
2019-02-27T03:09:13.388Z,100866.20
2019-02-27T03:12:00.273Z,100867.56
2019-02-27T03:14:53.144Z,100866.59
2019-02-27T03:17:36.004Z,100874.02
2019-02-27T03:20:22.761Z,100879.80
2019-02-27T03:23:15.701Z,100873.33
2019-02-27T03:25:47.912Z,100867.79
2019-02-27T03:28:29.044Z,100863.83
2019-02-27T03:31:19.144Z,100864.69
2019-02-27T03:34:12.403Z,100873.12
2019-02-27T03:36:56.248Z,100872.25
2019-02-27T03:40:02.565Z,100873.30
2019-02-27T03:42:43.283Z,100869.39
2019-02-27T03:45:33.154Z,100866.80
2019-02-27T03:48:07.685Z,100863.06
2019-02-27T03:51:06.729Z,100861.14
2019-02-27T03:53:47.382Z,100863.14
2019-02-27T03:56:27.794Z,100862.45
2019-02-27T03:59:11.497Z,100858.59
2019-02-27T04:02:06.186Z,100867.22
2019-02-27T04:04:54.385Z,100857.73
2019-02-27T04:07:50.617Z,100852.66
2019-02-27T04:10:19.505Z,100849.06
2019-02-27T04:12:51.429Z,100853.52
2019-02-27T04:15:19.034Z,100855.23
2019-02-27T04:17:51.697Z,100871.05
2019-02-27T04:20:17.812Z,100866.77
2019-02-27T04:22:46.735Z,100862.45
2019-02-27T04:25:15.677Z,100857.19
2019-02-27T04:27:44.546Z,100855.55
2019-02-27T04:30:15.676Z,100855.56
2019-02-27T04:32:48.698Z,100849.81
2019-02-27T04:35:15.211Z,100849.66
2019-02-27T04:37:44.132Z,100841.88
2019-02-27T04:40:13.118Z,100842.57
2019-02-27T04:42:41.998Z,100842.72
2019-02-27T04:45:12.422Z,100841.74
2019-02-27T04:47:42.867Z,100844.13
2019-02-27T04:50:11.927Z,100849.30
2019-02-27T04:52:40.854Z,100847.18
2019-02-27T04:55:09.932Z,100844.95
2019-02-27T04:57:38.803Z,100848.70
2019-02-27T05:00:10.617Z,100843.50
2019-02-27T05:02:39.492Z,100851.27
2019-02-27T05:05:09.563Z,100850.87
2019-02-27T05:07:38.489Z,100852.23
2019-02-27T05:10:09.878Z,100846.20
2019-02-27T05:12:38.843Z,100853.26
2019-02-27T05:15:09.363Z,100854.41
2019-02-27T05:17:38.237Z,100853.06
2019-02-27T05:20:11.461Z,100855.77
2019-02-27T05:22:39.611Z,100852.58
2019-02-27T05:25:08.667Z,100852.52
2019-02-27T05:27:37.556Z,100854.63
2019-02-27T05:30:12.067Z,100852.09
2019-02-27T05:32:39.987Z,100859.57
2019-02-27T05:35:09.042Z,100863.13
2019-02-27T05:37:39.133Z,100853.80
2019-02-27T05:40:10.332Z,100862.31
2019-02-27T05:42:39.677Z,100868.23
2019-02-27T05:45:11.322Z,100875.25
2019-02-27T05:47:44.666Z,100881.50
2019-02-27T05:50:12.627Z,100878.02
2019-02-27T05:52:41.634Z,100881.31
2019-02-27T05:55:10.616Z,100883.16
2019-02-27T05:57:39.489Z,100889.47
2019-02-27T06:00:11.327Z,100885.50
2019-02-27T06:02:41.929Z,100891.27
2019-02-27T06:05:11.047Z,100886.59
2019-02-27T06:07:39.957Z,100888.12
2019-02-27T06:10:20.164Z,100889.15
2019-02-27T06:12:49.043Z,100893.22
2019-02-27T06:15:19.328Z,100888.45
2019-02-27T06:17:49.733Z,100894.20
2019-02-27T06:20:19.598Z,100894.24
2019-02-27T06:22:48.991Z,100889.73
2019-02-27T06:25:23.483Z,100893.33
2019-02-27T06:27:50.467Z,100881.27
2019-02-27T06:30:21.304Z,100871.27
2019-02-27T06:32:50.803Z,100872.30
2019-02-27T06:35:20.520Z,100861.81
2019-02-27T06:37:50.781Z,100869.91
2019-02-27T06:40:21.055Z,100874.36
2019-02-27T06:42:53.409Z,100873.98
2019-02-27T06:45:22.015Z,100871.86
2019-02-27T06:47:51.515Z,100864.52
2019-02-27T06:50:25.243Z,100855.58
2019-02-27T06:52:52.463Z,100856.23
2019-02-27T06:55:21.873Z,100864.52
2019-02-27T06:57:51.369Z,100862.02
2019-02-27T07:00:22.006Z,100860.28
2019-02-27T07:02:55.204Z,100868.59
2019-02-27T07:05:22.865Z,100864.37
2019-02-27T07:07:52.350Z,100861.77
2019-02-27T07:10:21.960Z,100858.06
2019-02-27T07:12:54.485Z,100855.94
2019-02-27T07:15:23.627Z,100855.98
2019-02-27T07:17:53.140Z,100854.75
2019-02-27T07:20:24.530Z,100851.83
2019-02-27T07:22:53.995Z,100851.97
2019-02-27T07:25:23.600Z,100851.50
2019-02-27T07:27:53.303Z,100847.18
2019-02-27T07:30:23.851Z,100851.86
2019-02-27T07:32:53.738Z,100850.83
2019-02-27T07:35:25.782Z,100851.02
2019-02-27T07:37:54.362Z,100848.62
2019-02-27T07:40:23.784Z,100848.05
2019-02-27T07:42:53.290Z,100848.58
2019-02-27T07:45:23.507Z,100852.53
2019-02-27T07:47:53.115Z,100849.83
2019-02-27T07:50:22.928Z,100853.85
2019-02-27T07:52:52.445Z,100849.32
2019-02-27T07:55:23.635Z,100844.70
2019-02-27T07:57:58.194Z,100840.13
2019-02-27T08:00:26.309Z,100839.86
2019-02-27T08:02:55.785Z,100836.49
2019-02-27T08:05:28.307Z,100839.54
2019-02-27T08:07:56.613Z,100845.77
2019-02-27T08:10:27.039Z,100830.96
2019-02-27T08:12:56.800Z,100834.02
2019-02-27T08:15:26.568Z,100833.59
2019-02-27T08:17:57.896Z,100834.95
2019-02-27T08:20:26.999Z,100836.99
2019-02-27T08:22:56.779Z,100834.70
2019-02-27T08:25:27.550Z,100829.05
2019-02-27T08:27:57.252Z,100833.86
2019-02-27T08:30:27.885Z,100832.61
2019-02-27T08:32:57.385Z,100828.42
2019-02-27T08:35:26.882Z,100820.60
2019-02-27T08:38:02.636Z,100819.33
2019-02-27T08:40:27.747Z,100821.95
2019-02-27T08:42:57.366Z,100822.81
2019-02-27T08:45:27.699Z,100816.22
2019-02-27T08:47:57.386Z,100825.84
2019-02-27T08:50:29.172Z,100825.45
2019-02-27T08:52:58.051Z,100822.73
2019-02-27T08:55:27.422Z,100816.94
2019-02-27T08:57:57.220Z,100815.66
2019-02-27T09:00:33.805Z,100811.64
2019-02-27T09:03:03.803Z,100813.23
2019-02-27T09:05:33.527Z,100810.28
2019-02-27T09:08:03.037Z,100809.61
2019-02-27T09:10:32.738Z,100803.42
2019-02-27T09:13:05.734Z,100805.77
2019-02-27T09:15:33.496Z,100805.09
2019-02-27T09:18:03.102Z,100807.61
2019-02-27T09:20:32.699Z,100805.60
2019-02-27T09:23:02.204Z,100807.53
2019-02-27T09:25:32.016Z,100790.45
2019-02-27T09:28:03.432Z,100789.22
2019-02-27T09:30:32.459Z,100792.42
2019-02-27T09:33:02.062Z,100782.31
2019-02-27T09:35:34.516Z,100785.22
2019-02-27T09:38:02.811Z,100783.01
2019-02-27T09:40:32.291Z,100782.11
2019-02-27T09:43:01.829Z,100793.36
2019-02-27T09:45:38.587Z,100786.50
2019-02-27T09:48:08.206Z,100795.55
2019-02-27T09:50:48.958Z,100792.13
2019-02-27T09:53:18.781Z,100795.00
2019-02-27T09:55:48.367Z,100788.76
2019-02-27T09:58:18.096Z,100786.47
2019-02-27T10:00:59.337Z,100782.48
2019-02-27T10:03:27.532Z,100779.21
2019-02-27T10:05:57.148Z,100777.58
2019-02-27T10:08:26.761Z,100780.52
2019-02-27T10:10:56.268Z,100776.14
2019-02-27T10:13:25.766Z,100771.41
2019-02-27T10:15:55.258Z,100763.47
2019-02-27T10:18:24.747Z,100769.27
2019-02-27T10:20:54.239Z,100768.52
2019-02-27T10:23:23.878Z,100771.09
2019-02-27T10:25:53.378Z,100768.78
2019-02-27T10:28:22.993Z,100760.05
2019-02-27T10:30:52.483Z,100761.27
2019-02-27T10:33:22.002Z,100755.44
2019-02-27T10:35:51.617Z,100756.69
2019-02-27T10:38:21.202Z,100749.15
2019-02-27T10:40:50.716Z,100742.81
2019-02-27T10:43:21.171Z,100746.96
2019-02-27T10:45:50.843Z,100742.91
2019-02-27T10:48:20.653Z,100733.05
2019-02-27T10:50:50.272Z,100725.16
2019-02-27T10:53:19.872Z,100727.90
2019-02-27T10:55:50.036Z,100723.42
2019-02-27T10:58:19.595Z,100721.58
2019-02-27T11:00:50.316Z,100707.70
2019-02-27T11:03:19.935Z,100706.43
2019-02-27T11:05:52.340Z,100711.81
2019-02-27T11:08:20.455Z,100705.64
2019-02-27T11:10:49.982Z,100709.20
2019-02-27T11:13:19.693Z,100707.41
2019-02-27T11:15:49.188Z,100701.11
2019-02-27T11:18:18.701Z,100695.05
2019-02-27T11:20:48.193Z,100695.89
2019-02-27T11:23:17.706Z,100683.01
2019-02-27T11:25:47.302Z,100679.13
2019-02-27T11:28:17.022Z,100667.31
2019-02-27T11:30:46.622Z,100662.65
2019-02-27T11:33:25.562Z,100662.89
2019-02-27T11:35:47.673Z,100654.90
2019-02-27T11:38:17.287Z,100647.48
2019-02-27T11:40:46.987Z,100648.88
2019-02-27T11:43:17.238Z,100644.70
2019-02-27T11:45:46.927Z,100642.92
2019-02-27T11:48:16.531Z,100629.30
2019-02-27T11:50:45.934Z,100629.98
2019-02-27T11:53:15.336Z,100609.77
2019-02-27T11:55:47.059Z,100610.95
2019-02-27T11:58:16.302Z,100601.16
2019-02-27T12:00:45.882Z,100600.91
2019-02-27T12:03:15.383Z,100598.62
2019-02-27T12:05:44.797Z,100586.47
2019-02-27T12:08:14.406Z,100581.09
2019-02-27T12:10:44.010Z,100570.70
2019-02-27T12:13:13.508Z,100567.88
2019-02-27T12:15:43.617Z,100563.89
2019-02-27T12:18:14.057Z,100554.03
2019-02-27T12:20:43.553Z,100548.78
2019-02-27T12:23:12.927Z,100552.68
2019-02-27T12:25:42.663Z,100542.82
2019-02-27T12:28:12.069Z,100548.58
2019-02-27T12:30:41.676Z,100539.56
2019-02-27T12:33:11.172Z,100537.08
2019-02-27T12:35:44.153Z,100532.70
2019-02-27T12:38:11.623Z,100524.28
2019-02-27T12:40:41.126Z,100516.48
2019-02-27T12:43:10.623Z,100512.70
2019-02-27T12:45:40.127Z,100512.39
2019-02-27T12:48:12.609Z,100498.48
2019-02-27T12:50:40.775Z,100499.18
2019-02-27T12:53:10.491Z,100492.11
2019-02-27T12:55:40.185Z,100481.78
2019-02-27T12:58:09.492Z,100482.94
2019-02-27T13:00:39.995Z,100482.19
2019-02-27T13:03:10.241Z,100475.36
2019-02-27T13:05:39.643Z,100471.94
2019-02-27T13:08:11.149Z,100460.08
2019-02-27T13:10:40.178Z,100455.16
2019-02-27T13:13:09.691Z,100449.34
2019-02-27T13:15:41.115Z,100437.91
2019-02-27T13:18:10.737Z,100433.02
2019-02-27T13:20:43.033Z,100425.31
2019-02-27T13:23:11.487Z,100431.25
2019-02-27T13:25:41.075Z,100430.00
2019-02-27T13:28:10.597Z,100417.84
2019-02-27T13:30:41.567Z,100408.49
2019-02-27T13:33:11.546Z,100410.30
2019-02-27T13:35:41.054Z,100405.45
2019-02-27T13:38:10.441Z,100398.02
2019-02-27T13:40:39.933Z,100388.93
2019-02-27T13:43:09.785Z,100387.91
2019-02-27T13:45:39.574Z,100385.78
2019-02-27T13:48:09.295Z,100385.69
2019-02-27T13:50:39.002Z,100378.99
2019-02-27T13:53:08.815Z,100369.91
2019-02-27T13:55:38.216Z,100368.08
2019-02-27T13:58:07.812Z,100355.04
2019-02-27T14:00:39.108Z,100362.03
2019-02-27T14:03:12.090Z,100350.91
2019-02-27T14:05:40.229Z,100349.75
2019-02-27T14:08:10.537Z,100355.27
2019-02-27T14:10:40.161Z,100350.64
2019-02-27T14:13:09.942Z,100345.05
2019-02-27T14:15:39.557Z,100349.02
2019-02-27T14:18:09.175Z,100348.08
2019-02-27T14:20:40.007Z,100347.59
2019-02-27T14:23:11.963Z,100349.60
2019-02-27T14:25:41.057Z,100335.63
2019-02-27T14:28:10.466Z,100326.33
2019-02-27T14:30:51.123Z,100321.98
2019-02-27T14:33:20.743Z,100323.48
2019-02-27T14:35:50.251Z,100316.20
2019-02-27T14:38:21.988Z,100301.14
2019-02-27T14:40:51.285Z,100310.46
2019-02-27T14:43:20.998Z,100299.59
2019-02-27T14:45:50.934Z,100292.04
2019-02-27T14:48:21.417Z,100296.55
2019-02-27T14:50:52.076Z,100290.30
2019-02-27T14:53:22.165Z,100281.00
2019-02-27T14:55:51.899Z,100280.84
2019-02-27T14:58:24.372Z,100283.77
2019-02-27T15:00:52.952Z,100276.06
2019-02-27T15:03:22.566Z,100270.59
2019-02-27T15:05:52.164Z,100258.89
2019-02-27T15:08:21.673Z,100254.14
2019-02-27T15:10:51.386Z,100237.37
2019-02-27T15:13:21.079Z,100237.16
2019-02-27T15:15:50.794Z,100231.95
2019-02-27T15:18:22.528Z,100230.02
2019-02-27T15:20:51.953Z,100223.41
2019-02-27T15:23:24.497Z,100213.16
2019-02-27T15:25:52.803Z,100211.44
2019-02-27T15:28:22.303Z,100207.63
2019-02-27T15:30:52.027Z,100195.88
2019-02-27T15:33:22.335Z,100194.44
2019-02-27T15:35:55.552Z,100187.30
2019-02-27T15:38:24.515Z,100188.94
2019-02-27T15:40:54.220Z,100185.78
2019-02-27T15:43:24.234Z,100174.16
2019-02-27T15:45:54.053Z,100172.39
2019-02-27T15:48:23.764Z,100164.73
2019-02-27T15:50:56.586Z,100161.39
2019-02-27T15:53:25.123Z,100161.77
2019-02-27T15:55:54.733Z,100157.30
2019-02-27T15:58:25.374Z,100151.81
2019-02-27T16:00:56.509Z,100146.28
2019-02-27T16:03:25.894Z,100136.15
2019-02-27T16:05:55.826Z,100139.88
2019-02-27T16:08:26.141Z,100138.09
2019-02-27T16:10:55.851Z,100133.77
2019-02-27T16:13:25.455Z,100140.69
2019-02-27T16:15:55.158Z,100136.30
2019-02-27T16:18:25.922Z,100135.74
2019-02-27T16:20:56.424Z,100135.23
2019-02-27T16:23:26.027Z,100130.72
2019-02-27T16:25:56.560Z,100129.56
2019-02-27T16:28:27.709Z,100131.48
2019-02-27T16:30:57.614Z,100131.25
2019-02-27T16:33:28.587Z,100134.93
2019-02-27T16:35:59.484Z,100137.76
2019-02-27T16:38:31.621Z,100135.83
2019-02-27T16:41:02.584Z,100134.25
2019-02-27T16:43:32.092Z,100132.14
2019-02-27T16:46:02.211Z,100127.20
2019-02-27T16:48:34.475Z,100118.27
2019-02-27T16:51:05.421Z,100116.25
2019-02-27T16:53:36.050Z,100113.17
2019-02-27T16:56:08.279Z,100110.61
2019-02-27T16:58:37.513Z,100115.50
2019-02-27T17:01:10.079Z,100110.82
2019-02-27T17:03:39.693Z,100116.80
2019-02-27T17:06:09.811Z,100112.50
2019-02-27T17:08:40.152Z,100114.05
2019-02-27T17:11:10.356Z,100105.68
2019-02-27T17:13:41.399Z,100110.98
2019-02-27T17:16:12.240Z,100112.63
2019-02-27T17:18:42.151Z,100101.30
2019-02-27T17:21:11.958Z,100098.45
2019-02-27T17:23:45.413Z,100092.78
2019-02-27T17:26:14.906Z,100094.44
2019-02-27T17:28:44.999Z,100090.34
2019-02-27T17:31:15.430Z,100094.83
2019-02-27T17:33:45.952Z,100090.72
2019-02-27T17:36:16.471Z,100090.20
2019-02-27T17:38:49.698Z,100084.58
2019-02-27T17:41:18.322Z,100076.43
2019-02-27T17:43:51.540Z,100069.56
2019-02-27T17:46:21.497Z,100065.72
2019-02-27T17:48:51.759Z,100065.56
2019-02-27T17:51:22.121Z,100057.36
2019-02-27T17:53:55.071Z,100059.16
2019-02-27T17:56:30.568Z,100065.72
2019-02-27T17:59:01.041Z,100060.66
2019-02-27T18:01:31.391Z,100062.70
2019-02-27T18:04:01.776Z,100059.12
2019-02-27T18:06:34.861Z,100054.81
2019-02-27T18:09:04.786Z,100063.61
2019-02-27T18:11:34.994Z,100047.08
2019-02-27T18:14:08.991Z,100045.17
2019-02-27T18:16:37.586Z,100038.74
2019-02-27T18:19:08.551Z,100035.26
2019-02-27T18:21:39.071Z,100034.66
2019-02-27T18:24:09.511Z,100035.23
2019-02-27T18:26:40.222Z,100023.73
2019-02-27T18:29:10.736Z,100017.52
2019-02-27T18:31:40.680Z,100018.27
2019-02-27T18:34:10.992Z,100021.53
2019-02-27T18:36:43.019Z,100011.77
2019-02-27T18:39:13.992Z,100005.61
2019-02-27T18:41:45.724Z,99995.64
2019-02-27T18:44:17.712Z,99995.70
2019-02-27T18:46:48.029Z,99990.64
2019-02-27T18:49:18.653Z,99981.88
2019-02-27T18:51:49.870Z,99982.21
2019-02-27T18:54:22.859Z,99980.81
2019-02-27T18:56:54.426Z,99971.73
2019-02-27T18:59:29.408Z,99969.34
2019-02-27T19:01:57.233Z,99960.90
2019-02-27T19:04:27.552Z,99963.56
2019-02-27T19:06:57.973Z,99962.45
2019-02-27T19:09:29.303Z,99969.69
2019-02-27T19:12:00.250Z,99962.45
2019-02-27T19:14:30.797Z,99949.51
2019-02-27T19:17:02.326Z,99946.28
2019-02-27T19:19:33.510Z,99947.67
2019-02-27T19:22:04.340Z,99947.03
2019-02-27T19:24:36.203Z,99938.61
2019-02-27T19:27:06.831Z,99932.20
2019-02-27T19:29:37.302Z,99930.96
2019-02-27T19:32:07.277Z,99929.62
2019-02-27T19:34:38.178Z,99928.72
2019-02-27T19:37:10.202Z,99928.23
2019-02-27T19:39:40.378Z,99920.21
2019-02-27T19:42:13.240Z,99917.48
2019-02-27T19:44:43.176Z,99914.23
2019-02-27T19:47:15.034Z,99916.13
2019-02-27T19:49:46.195Z,99912.92
2019-02-27T19:52:16.991Z,99915.14
2019-02-27T19:54:51.589Z,99904.55
2019-02-27T19:57:21.631Z,99906.96
2019-02-27T19:59:52.517Z,99908.13
2019-02-27T20:02:23.703Z,99907.22
2019-02-27T20:04:54.552Z,99899.84
2019-02-27T20:07:24.748Z,99900.12
2019-02-27T20:09:55.341Z,99889.85
2019-02-27T20:12:25.751Z,99883.05
2019-02-27T20:14:56.231Z,99882.09
2019-02-27T20:17:31.677Z,99877.14
2019-02-27T20:20:00.617Z,99877.95
2019-02-27T20:22:31.234Z,99881.23
2019-02-27T20:25:01.436Z,99873.00
2019-02-27T20:27:32.071Z,99869.11
2019-02-27T20:30:02.986Z,99857.44
2019-02-27T20:32:35.071Z,99859.00
2019-02-27T20:35:06.707Z,99851.19
2019-02-27T20:37:40.319Z,99842.34
2019-02-27T20:40:13.915Z,99845.23
2019-02-27T20:42:49.974Z,99832.35
2019-02-27T20:45:23.342Z,99833.86
2019-02-27T20:48:01.746Z,99822.52
2019-02-27T20:50:34.718Z,99805.78
2019-02-27T20:53:04.996Z,99805.93
2019-02-27T20:55:34.712Z,99796.52
2019-02-27T20:58:05.231Z,99792.06
2019-02-27T21:00:37.128Z,99790.52
2019-02-27T21:03:07.872Z,99779.83
2019-02-27T21:05:41.042Z,99778.52
2019-02-27T21:08:10.231Z,99769.67
2019-02-27T21:10:40.755Z,99765.91
2019-02-27T21:13:15.702Z,99765.04
2019-02-27T21:15:42.995Z,99756.52
2019-02-27T21:18:13.631Z,99752.78
2019-02-27T21:20:45.168Z,99746.98
2019-02-27T21:23:16.429Z,99747.52
2019-02-27T21:25:49.330Z,99743.91
2019-02-27T21:28:20.976Z,99743.79
2019-02-27T21:30:52.382Z,99742.20
2019-02-27T21:33:22.435Z,99738.59
2019-02-27T21:35:52.450Z,99731.22
2019-02-27T21:38:22.664Z,99726.70
2019-02-27T21:40:54.111Z,99721.86
2019-02-27T21:43:25.608Z,99720.95
2019-02-27T21:45:56.497Z,99715.86
2019-02-27T21:48:27.865Z,99709.89
2019-02-27T21:50:58.310Z,99705.75
2019-02-27T21:53:29.598Z,99703.17
2019-02-27T21:55:59.943Z,99700.95
2019-02-27T21:58:32.881Z,99699.34
2019-02-27T22:01:01.630Z,99701.88
2019-02-27T22:03:31.628Z,99686.83
2019-02-27T22:06:01.331Z,99694.24
2019-02-27T22:08:31.048Z,99697.87
2019-02-27T22:11:00.856Z,99691.48
2019-02-27T22:13:32.325Z,99684.89
2019-02-27T22:16:01.815Z,99687.87
2019-02-27T22:18:31.939Z,99678.29
2019-02-27T22:21:01.839Z,99680.62
2019-02-27T22:23:31.848Z,99677.52
2019-02-27T22:26:03.139Z,99671.06
2019-02-27T22:28:33.222Z,99664.50
2019-02-27T22:31:06.110Z,99655.12
2019-02-27T22:33:35.805Z,99648.28
2019-02-27T22:36:05.951Z,99654.38
2019-02-27T22:38:35.951Z,99647.88
2019-02-27T22:41:06.062Z,99639.29
2019-02-27T22:43:35.672Z,99637.41
2019-02-27T22:46:05.781Z,99635.19
2019-02-27T22:48:36.230Z,99625.25
2019-02-27T22:51:06.551Z,99613.16
2019-02-27T22:53:36.498Z,99607.77
2019-02-27T22:56:06.456Z,99603.66
2019-02-27T22:58:35.871Z,99599.64
2019-02-27T23:01:10.592Z,99605.76
2019-02-27T23:03:45.752Z,99604.44
2019-02-27T23:06:16.271Z,99600.10
2019-02-27T23:08:46.496Z,99597.92
2019-02-27T23:11:16.518Z,99589.97
2019-02-27T23:13:49.790Z,99581.43
2019-02-27T23:16:21.149Z,99585.14
2019-02-27T23:18:51.657Z,99575.00
2019-02-27T23:21:21.473Z,99575.58
2019-02-27T23:23:51.190Z,99574.60
2019-02-27T23:26:21.104Z,99574.73
2019-02-27T23:28:51.440Z,99578.61
2019-02-27T23:31:23.316Z,99579.42
2019-02-27T23:33:53.175Z,99573.08
2019-02-27T23:36:22.941Z,99574.26
2019-02-27T23:38:53.151Z,99574.39
2019-02-27T23:41:23.918Z,99574.80
2019-02-27T23:43:54.391Z,99570.64
2019-02-27T23:46:24.511Z,99571.17
2019-02-27T23:48:54.910Z,99572.16
2019-02-27T23:51:24.958Z,99556.74
2019-02-27T23:53:55.351Z,99559.41
2019-02-27T23:56:25.590Z,99550.42
2019-02-27T23:58:55.637Z,99541.23
